sensor_id;sensor_type;location;lat;lon;timestamp;noise_LAeq;noise_LA_min;noise_LA_max;noise_LA01;noise_LA95
61095;Laerm;20450;49.074;9.158;2023-03-12T00:00:21;40.18;36.10;46.84;;
61095;Laerm;20450;49.074;9.158;2023-03-12T00:02:48;39.98;36.91;43.19;;
61095;Laerm;20450;49.074;9.158;2023-03-12T00:05:16;39.77;35.94;44.76;;
61095;Laerm;20450;49.074;9.158;2023-03-12T00:07:43;39.96;36.69;43.09;;
61095;Laerm;20450;49.074;9.158;2023-03-12T00:10:16;40.00;36.45;42.47;;
61095;Laerm;20450;49.074;9.158;2023-03-12T00:12:43;39.97;37.12;43.49;;
61095;Laerm;20450;49.074;9.158;2023-03-12T00:15:10;39.97;37.12;43.44;;
61095;Laerm;20450;49.074;9.158;2023-03-12T00:17:37;40.13;36.69;43.09;;
61095;Laerm;20450;49.074;9.158;2023-03-12T00:20:05;39.58;36.91;41.75;;
61095;Laerm;20450;49.074;9.158;2023-03-12T00:22:33;39.71;36.20;42.03;;
61095;Laerm;20450;49.074;9.158;2023-03-12T00:25:01;39.65;36.20;42.41;;
61095;Laerm;20450;49.074;9.158;2023-03-12T00:27:28;40.33;36.69;45.33;;
61095;Laerm;20450;49.074;9.158;2023-03-12T00:29:56;39.85;37.12;42.98;;
61095;Laerm;20450;49.074;9.158;2023-03-12T00:32:23;39.89;36.45;42.29;;
61095;Laerm;20450;49.074;9.158;2023-03-12T00:34:51;40.16;37.52;42.71;;
61095;Laerm;20450;49.074;9.158;2023-03-12T00:37:18;40.04;36.20;42.09;;
61095;Laerm;20450;49.074;9.158;2023-03-12T00:39:47;40.46;37.12;43.39;;
61095;Laerm;20450;49.074;9.158;2023-03-12T00:42:14;39.81;36.91;43.29;;
61095;Laerm;20450;49.074;9.158;2023-03-12T00:44:41;39.67;36.69;42.03;;
61095;Laerm;20450;49.074;9.158;2023-03-12T00:47:08;39.72;36.45;43.19;;
61095;Laerm;20450;49.074;9.158;2023-03-12T00:49:36;39.77;36.45;42.53;;
61095;Laerm;20450;49.074;9.158;2023-03-12T00:52:03;39.43;36.69;41.61;;
61095;Laerm;20450;49.074;9.158;2023-03-12T00:54:31;39.59;36.69;42.82;;
61095;Laerm;20450;49.074;9.158;2023-03-12T00:57:00;39.62;36.91;42.76;;
61095;Laerm;20450;49.074;9.158;2023-03-12T00:59:27;39.76;36.45;42.09;;
61095;Laerm;20450;49.074;9.158;2023-03-12T01:01:55;40.01;36.45;43.24;;
61095;Laerm;20450;49.074;9.158;2023-03-12T01:04:22;39.97;36.91;41.96;;
61095;Laerm;20450;49.074;9.158;2023-03-12T01:06:50;40.51;37.70;44.79;;
61095;Laerm;20450;49.074;9.158;2023-03-12T01:09:16;41.11;36.69;46.97;;
61095;Laerm;20450;49.074;9.158;2023-03-12T01:11:43;39.93;37.32;43.19;;
61095;Laerm;20450;49.074;9.158;2023-03-12T01:14:12;40.06;36.91;44.58;;
61095;Laerm;20450;49.074;9.158;2023-03-12T01:16:39;39.86;36.91;43.19;;
61095;Laerm;20450;49.074;9.158;2023-03-12T01:19:06;40.15;37.12;42.71;;
61095;Laerm;20450;49.074;9.158;2023-03-12T01:21:33;39.57;36.45;42.41;;
61095;Laerm;20450;49.074;9.158;2023-03-12T01:24:00;39.47;36.20;45.17;;
61095;Laerm;20450;49.074;9.158;2023-03-12T01:26:27;39.42;36.45;41.68;;
61095;Laerm;20450;49.074;9.158;2023-03-12T01:28:54;39.42;36.45;48.00;;
61095;Laerm;20450;49.074;9.158;2023-03-12T01:31:22;39.45;36.20;42.22;;
61095;Laerm;20450;49.074;9.158;2023-03-12T01:33:51;39.58;36.45;45.01;;
61095;Laerm;20450;49.074;9.158;2023-03-12T01:36:22;39.44;35.94;42.59;;
61095;Laerm;20450;49.074;9.158;2023-03-12T01:38:50;39.53;36.69;42.76;;
61095;Laerm;20450;49.074;9.158;2023-03-12T01:41:17;39.80;35.94;42.16;;
61095;Laerm;20450;49.074;9.158;2023-03-12T01:43:45;39.75;36.45;43.29;;
61095;Laerm;20450;49.074;9.158;2023-03-12T01:46:31;39.64;36.45;42.59;;
61095;Laerm;20450;49.074;9.158;2023-03-12T01:49:05;39.67;35.36;45.04;;
61095;Laerm;20450;49.074;9.158;2023-03-12T01:51:39;39.45;36.20;41.82;;
61095;Laerm;20450;49.074;9.158;2023-03-12T01:54:13;39.58;36.69;42.47;;
61095;Laerm;20450;49.074;9.158;2023-03-12T01:56:43;39.70;35.94;47.84;;
61095;Laerm;20450;49.074;9.158;2023-03-12T01:59:17;39.40;36.20;42.16;;
61095;Laerm;20450;49.074;9.158;2023-03-12T02:01:49;39.46;36.45;42.35;;
61095;Laerm;20450;49.074;9.158;2023-03-12T02:04:20;39.77;36.56;48.40;;
61095;Laerm;20450;49.074;9.158;2023-03-12T02:06:57;39.46;36.45;42.16;;
61095;Laerm;20450;49.074;9.158;2023-03-12T02:09:27;39.40;36.10;41.68;;
61095;Laerm;20450;49.074;9.158;2023-03-12T02:11:54;39.62;36.45;42.22;;
61095;Laerm;20450;49.074;9.158;2023-03-12T02:14:21;39.47;35.94;42.71;;
61095;Laerm;20450;49.074;9.158;2023-03-12T02:16:50;39.70;36.69;51.06;;
61095;Laerm;20450;49.074;9.158;2023-03-12T02:19:31;39.31;36.20;41.89;;
61095;Laerm;20450;49.074;9.158;2023-03-12T02:22:03;39.50;36.20;42.71;;
61095;Laerm;20450;49.074;9.158;2023-03-12T02:24:37;39.54;36.45;43.09;;
61095;Laerm;20450;49.074;9.158;2023-03-12T02:27:10;39.43;36.20;41.82;;
61095;Laerm;20450;49.074;9.158;2023-03-12T02:29:41;39.53;36.45;42.29;;
61095;Laerm;20450;49.074;9.158;2023-03-12T02:32:18;39.40;36.10;42.71;;
61095;Laerm;20450;49.074;9.158;2023-03-12T02:34:47;39.48;36.45;47.30;;
61095;Laerm;20450;49.074;9.158;2023-03-12T02:37:14;39.99;36.20;42.88;;
61095;Laerm;20450;49.074;9.158;2023-03-12T02:39:43;40.36;35.66;44.97;;
61095;Laerm;20450;49.074;9.158;2023-03-12T02:42:15;39.74;36.45;48.59;;
61095;Laerm;20450;49.074;9.158;2023-03-12T02:44:42;39.48;36.45;41.82;;
61095;Laerm;20450;49.074;9.158;2023-03-12T02:47:10;39.74;36.91;42.16;;
61095;Laerm;20450;49.074;9.158;2023-03-12T02:49:37;39.42;35.94;44.03;;
61095;Laerm;20450;49.074;9.158;2023-03-12T02:52:04;39.32;35.94;50.10;;
61095;Laerm;20450;49.074;9.158;2023-03-12T02:54:31;39.34;35.66;42.29;;
61095;Laerm;20450;49.074;9.158;2023-03-12T02:56:58;39.49;36.69;41.68;;
61095;Laerm;20450;49.074;9.158;2023-03-12T02:59:29;39.39;35.36;41.96;;
61095;Laerm;20450;49.074;9.158;2023-03-12T03:01:59;39.37;36.69;41.68;;
61095;Laerm;20450;49.074;9.158;2023-03-12T03:04:28;39.38;35.66;41.75;;
61095;Laerm;20450;49.074;9.158;2023-03-12T03:06:56;39.29;36.56;41.89;;
61095;Laerm;20450;49.074;9.158;2023-03-12T03:09:23;39.40;35.94;42.29;;
61095;Laerm;20450;49.074;9.158;2023-03-12T03:11:51;39.48;36.20;42.41;;
61095;Laerm;20450;49.074;9.158;2023-03-12T03:14:33;39.32;36.69;41.96;;
61095;Laerm;20450;49.074;9.158;2023-03-12T03:17:03;39.38;35.94;41.75;;
61095;Laerm;20450;49.074;9.158;2023-03-12T03:19:30;39.27;36.45;42.35;;
61095;Laerm;20450;49.074;9.158;2023-03-12T03:21:57;39.24;35.94;41.68;;
61095;Laerm;20450;49.074;9.158;2023-03-12T03:24:24;39.85;36.45;45.04;;
61095;Laerm;20450;49.074;9.158;2023-03-12T03:26:51;39.09;35.94;41.38;;
61095;Laerm;20450;49.074;9.158;2023-03-12T03:29:18;39.19;35.66;43.81;;
61095;Laerm;20450;49.074;9.158;2023-03-12T03:31:46;39.26;35.94;41.82;;
61095;Laerm;20450;49.074;9.158;2023-03-12T03:34:13;39.24;35.36;41.89;;
61095;Laerm;20450;49.074;9.158;2023-03-12T03:36:40;39.20;36.20;43.09;;
61095;Laerm;20450;49.074;9.158;2023-03-12T03:39:11;39.38;36.20;47.42;;
61095;Laerm;20450;49.074;9.158;2023-03-12T03:41:38;39.22;36.20;41.46;;
61095;Laerm;20450;49.074;9.158;2023-03-12T03:44:05;39.35;35.94;42.74;;
61095;Laerm;20450;49.074;9.158;2023-03-12T03:46:34;40.16;36.45;44.58;;
61095;Laerm;20450;49.074;9.158;2023-03-12T03:49:06;39.17;36.45;41.22;;
61095;Laerm;20450;49.074;9.158;2023-03-12T03:51:33;39.14;35.94;41.53;;
61095;Laerm;20450;49.074;9.158;2023-03-12T03:54:05;39.43;36.20;44.54;;
61095;Laerm;20450;49.074;9.158;2023-03-12T03:56:32;39.37;36.69;42.93;;
61095;Laerm;20450;49.074;9.158;2023-03-12T03:59:00;39.41;36.20;43.39;;
61095;Laerm;20450;49.074;9.158;2023-03-12T04:01:29;39.39;36.45;42.59;;
61095;Laerm;20450;49.074;9.158;2023-03-12T04:03:56;39.32;35.94;41.53;;
61095;Laerm;20450;49.074;9.158;2023-03-12T04:06:25;39.29;35.94;42.22;;
61095;Laerm;20450;49.074;9.158;2023-03-12T04:08:52;39.58;36.20;42.29;;
61095;Laerm;20450;49.074;9.158;2023-03-12T04:11:22;39.53;35.66;43.09;;
61095;Laerm;20450;49.074;9.158;2023-03-12T04:13:50;39.20;36.20;41.53;;
61095;Laerm;20450;49.074;9.158;2023-03-12T04:16:20;39.22;35.66;41.53;;
61095;Laerm;20450;49.074;9.158;2023-03-12T04:18:50;39.25;35.94;41.53;;
61095;Laerm;20450;49.074;9.158;2023-03-12T04:21:18;39.33;35.94;41.53;;
61095;Laerm;20450;49.074;9.158;2023-03-12T04:23:48;39.50;36.45;43.99;;
61095;Laerm;20450;49.074;9.158;2023-03-12T04:26:15;39.62;36.69;47.40;;
61095;Laerm;20450;49.074;9.158;2023-03-12T04:28:43;39.83;35.94;47.00;;
61095;Laerm;20450;49.074;9.158;2023-03-12T04:31:11;39.87;36.20;49.50;;
61095;Laerm;20450;49.074;9.158;2023-03-12T04:33:42;40.12;35.94;47.00;;
61095;Laerm;20450;49.074;9.158;2023-03-12T04:36:11;39.84;35.66;49.52;;
61095;Laerm;20450;49.074;9.158;2023-03-12T04:38:41;40.66;36.56;47.30;;
61095;Laerm;20450;49.074;9.158;2023-03-12T04:41:12;40.24;36.45;47.38;;
61095;Laerm;20450;49.074;9.158;2023-03-12T04:43:46;39.77;36.20;47.78;;
61095;Laerm;20450;49.074;9.158;2023-03-12T04:46:14;41.77;36.45;50.92;;
61095;Laerm;20450;49.074;9.158;2023-03-12T04:48:42;40.38;36.20;51.84;;
61095;Laerm;20450;49.074;9.158;2023-03-12T04:51:09;40.44;36.69;49.91;;
61095;Laerm;20450;49.074;9.158;2023-03-12T04:53:37;39.33;35.94;48.21;;
61095;Laerm;20450;49.074;9.158;2023-03-12T04:56:04;40.49;35.94;51.56;;
61095;Laerm;20450;49.074;9.158;2023-03-12T04:58:33;40.25;35.94;49.72;;
61095;Laerm;20450;49.074;9.158;2023-03-12T05:01:01;40.08;36.20;44.86;;
61095;Laerm;20450;49.074;9.158;2023-03-12T05:03:28;39.88;35.94;45.20;;
61095;Laerm;20450;49.074;9.158;2023-03-12T05:05:56;41.20;36.69;52.88;;
61095;Laerm;20450;49.074;9.158;2023-03-12T05:08:24;41.49;36.20;53.51;;
61095;Laerm;20450;49.074;9.158;2023-03-12T05:10:51;41.75;36.20;53.56;;
61095;Laerm;20450;49.074;9.158;2023-03-12T05:13:21;41.13;35.94;52.21;;
61095;Laerm;20450;49.074;9.158;2023-03-12T05:15:52;41.33;36.20;52.66;;
61095;Laerm;20450;49.074;9.158;2023-03-12T05:18:20;40.12;36.45;48.90;;
61095;Laerm;20450;49.074;9.158;2023-03-12T05:20:56;39.69;36.45;46.13;;
61095;Laerm;20450;49.074;9.158;2023-03-12T05:23:23;39.48;36.69;44.83;;
61095;Laerm;20450;49.074;9.158;2023-03-12T05:25:50;40.52;35.66;46.07;;
61095;Laerm;20450;49.074;9.158;2023-03-12T05:28:17;40.19;36.20;44.76;;
61095;Laerm;20450;49.074;9.158;2023-03-12T05:30:44;39.99;35.94;44.65;;
61095;Laerm;20450;49.074;9.158;2023-03-12T05:33:13;40.95;36.45;50.63;;
61095;Laerm;20450;49.074;9.158;2023-03-12T05:35:40;39.26;35.94;42.03;;
61095;Laerm;20450;49.074;9.158;2023-03-12T05:38:07;39.21;35.94;42.03;;
61095;Laerm;20450;49.074;9.158;2023-03-12T05:40:33;39.16;36.20;42.09;;
61095;Laerm;20450;49.074;9.158;2023-03-12T05:43:01;39.17;35.94;42.22;;
61095;Laerm;20450;49.074;9.158;2023-03-12T05:45:28;39.44;35.94;44.31;;
61095;Laerm;20450;49.074;9.158;2023-03-12T05:47:58;39.62;36.20;45.66;;
61095;Laerm;20450;49.074;9.158;2023-03-12T05:50:28;39.84;35.94;44.94;;
61095;Laerm;20450;49.074;9.158;2023-03-12T05:52:55;39.84;36.45;46.62;;
61095;Laerm;20450;49.074;9.158;2023-03-12T05:55:22;39.87;35.94;44.47;;
61095;Laerm;20450;49.074;9.158;2023-03-12T05:57:49;39.88;36.45;45.40;;
61095;Laerm;20450;49.074;9.158;2023-03-12T06:00:18;39.47;36.69;43.14;;
61095;Laerm;20450;49.074;9.158;2023-03-12T06:02:52;39.68;35.94;45.98;;
61095;Laerm;20450;49.074;9.158;2023-03-12T06:05:19;39.45;36.45;44.80;;
61095;Laerm;20450;49.074;9.158;2023-03-12T06:07:47;39.61;36.45;43.77;;
61095;Laerm;20450;49.074;9.158;2023-03-12T06:10:15;39.46;36.20;44.87;;
61095;Laerm;20450;49.074;9.158;2023-03-12T06:12:43;39.80;36.20;43.81;;
61095;Laerm;20450;49.074;9.158;2023-03-12T06:15:10;39.39;36.20;42.82;;
61095;Laerm;20450;49.074;9.158;2023-03-12T06:17:37;39.31;35.94;44.69;;
61095;Laerm;20450;49.074;9.158;2023-03-12T06:20:06;39.60;35.94;43.81;;
61095;Laerm;20450;49.074;9.158;2023-03-12T06:22:34;39.62;36.20;45.30;;
61095;Laerm;20450;49.074;9.158;2023-03-12T06:25:02;39.85;36.20;43.99;;
61095;Laerm;20450;49.074;9.158;2023-03-12T06:27:30;39.52;35.86;45.69;;
61095;Laerm;20450;49.074;9.158;2023-03-12T06:29:57;39.41;36.20;52.09;;
61095;Laerm;20450;49.074;9.158;2023-03-12T06:32:23;39.88;36.20;47.44;;
61095;Laerm;20450;49.074;9.158;2023-03-12T06:34:50;39.84;35.94;49.57;;
61095;Laerm;20450;49.074;9.158;2023-03-12T06:37:17;39.36;36.20;43.44;;
61095;Laerm;20450;49.074;9.158;2023-03-12T06:39:45;39.98;36.45;43.86;;
61095;Laerm;20450;49.074;9.158;2023-03-12T06:42:13;39.63;35.94;43.33;;
61095;Laerm;20450;49.074;9.158;2023-03-12T06:44:40;39.63;36.45;43.72;;
61095;Laerm;20450;49.074;9.158;2023-03-12T06:47:07;40.11;36.20;46.07;;
61095;Laerm;20450;49.074;9.158;2023-03-12T06:49:33;39.40;35.66;42.65;;
61095;Laerm;20450;49.074;9.158;2023-03-12T06:52:00;41.30;36.45;51.10;;
61095;Laerm;20450;49.074;9.158;2023-03-12T06:54:27;39.47;36.20;45.57;;
61095;Laerm;20450;49.074;9.158;2023-03-12T06:56:54;39.71;36.69;45.07;;
61095;Laerm;20450;49.074;9.158;2023-03-12T06:59:22;39.60;35.94;46.02;;
61095;Laerm;20450;49.074;9.158;2023-03-12T07:01:49;40.31;36.69;51.19;;
61095;Laerm;20450;49.074;9.158;2023-03-12T07:04:16;40.54;36.69;54.01;;
61095;Laerm;20450;49.074;9.158;2023-03-12T07:06:43;40.90;36.69;58.56;;
61095;Laerm;20450;49.074;9.158;2023-03-12T07:09:10;39.82;36.20;48.95;;
61095;Laerm;20450;49.074;9.158;2023-03-12T07:11:37;40.60;37.12;51.47;;
61095;Laerm;20450;49.074;9.158;2023-03-12T07:14:04;40.65;37.12;49.07;;
61095;Laerm;20450;49.074;9.158;2023-03-12T07:16:34;39.85;36.20;49.30;;
61095;Laerm;20450;49.074;9.158;2023-03-12T07:19:02;39.71;36.20;48.15;;
61095;Laerm;20450;49.074;9.158;2023-03-12T07:21:29;39.50;36.20;55.58;;
61095;Laerm;20450;49.074;9.158;2023-03-12T07:23:56;39.88;36.91;44.62;;
61095;Laerm;20450;49.074;9.158;2023-03-12T07:26:23;39.72;36.45;44.03;;
61095;Laerm;20450;49.074;9.158;2023-03-12T07:28:50;39.80;36.45;43.72;;
61095;Laerm;20450;49.074;9.158;2023-03-12T07:31:19;40.18;36.69;44.69;;
61095;Laerm;20450;49.074;9.158;2023-03-12T07:33:48;39.63;36.20;44.39;;
61095;Laerm;20450;49.074;9.158;2023-03-12T07:36:15;40.04;36.91;53.75;;
61095;Laerm;20450;49.074;9.158;2023-03-12T07:38:42;39.83;36.69;43.86;;
61095;Laerm;20450;49.074;9.158;2023-03-12T07:41:09;39.93;36.91;45.69;;
61095;Laerm;20450;49.074;9.158;2023-03-12T07:43:37;39.98;36.69;45.11;;
61095;Laerm;20450;49.074;9.158;2023-03-12T07:46:04;40.68;36.91;52.38;;
61095;Laerm;20450;49.074;9.158;2023-03-12T07:48:31;39.90;37.12;45.48;;
61095;Laerm;20450;49.074;9.158;2023-03-12T07:50:59;40.65;37.32;53.87;;
61095;Laerm;20450;49.074;9.158;2023-03-12T07:53:26;40.36;36.69;49.51;;
61095;Laerm;20450;49.074;9.158;2023-03-12T07:55:53;40.10;36.20;43.99;;
61095;Laerm;20450;49.074;9.158;2023-03-12T07:58:20;40.06;36.91;44.94;;
61095;Laerm;20450;49.074;9.158;2023-03-12T08:00:48;40.32;37.32;50.03;;
61095;Laerm;20450;49.074;9.158;2023-03-12T08:03:16;39.84;36.20;43.49;;
61095;Laerm;20450;49.074;9.158;2023-03-12T08:05:43;40.18;36.45;46.48;;
61095;Laerm;20450;49.074;9.158;2023-03-12T08:08:15;40.45;37.70;46.59;;
61095;Laerm;20450;49.074;9.158;2023-03-12T08:10:45;40.27;37.32;47.57;;
61095;Laerm;20450;49.074;9.158;2023-03-12T08:13:15;40.13;36.69;49.58;;
61095;Laerm;20450;49.074;9.158;2023-03-12T08:15:42;40.05;36.91;43.99;;
61095;Laerm;20450;49.074;9.158;2023-03-12T08:18:23;40.12;35.94;45.63;;
61095;Laerm;20450;49.074;9.158;2023-03-12T08:20:53;39.97;37.32;43.19;;
61095;Laerm;20450;49.074;9.158;2023-03-12T08:23:22;40.12;36.69;43.68;;
61095;Laerm;20450;49.074;9.158;2023-03-12T08:25:53;39.99;37.12;45.57;;
61095;Laerm;20450;49.074;9.158;2023-03-12T08:28:22;40.66;36.91;51.00;;
61095;Laerm;20450;49.074;9.158;2023-03-12T08:30:52;40.41;36.45;43.72;;
61095;Laerm;20450;49.074;9.158;2023-03-12T08:33:24;40.58;37.52;46.84;;
61095;Laerm;20450;49.074;9.158;2023-03-12T08:35:53;40.67;37.52;44.90;;
61095;Laerm;20450;49.074;9.158;2023-03-12T08:38:22;40.96;37.52;45.69;;
61095;Laerm;20450;49.074;9.158;2023-03-12T08:40:55;40.94;37.52;45.11;;
61095;Laerm;20450;49.074;9.158;2023-03-12T08:43:22;40.66;37.88;43.29;;
61095;Laerm;20450;49.074;9.158;2023-03-12T08:45:53;40.82;37.52;43.39;;
61095;Laerm;20450;49.074;9.158;2023-03-12T08:48:20;40.93;37.52;49.20;;
61095;Laerm;20450;49.074;9.158;2023-03-12T08:50:49;41.14;38.37;54.75;;
61095;Laerm;20450;49.074;9.158;2023-03-12T08:53:21;41.08;37.70;44.87;;
61095;Laerm;20450;49.074;9.158;2023-03-12T08:55:53;40.98;37.32;45.75;;
61095;Laerm;20450;49.074;9.158;2023-03-12T08:58:22;40.88;38.05;46.50;;
61095;Laerm;20450;49.074;9.158;2023-03-12T09:00:51;40.71;37.12;45.11;;
61095;Laerm;20450;49.074;9.158;2023-03-12T09:03:23;40.62;37.70;44.83;;
61095;Laerm;20450;49.074;9.158;2023-03-12T09:06:02;40.87;37.88;45.04;;
61095;Laerm;20450;49.074;9.158;2023-03-12T09:08:31;40.85;37.52;44.94;;
61095;Laerm;20450;49.074;9.158;2023-03-12T09:10:58;42.20;37.52;56.23;;
61095;Laerm;20450;49.074;9.158;2023-03-12T09:13:25;40.52;37.88;44.07;;
61095;Laerm;20450;49.074;9.158;2023-03-12T09:16:13;40.59;37.35;43.72;;
61095;Laerm;20450;49.074;9.158;2023-03-12T09:18:40;40.72;37.32;45.63;;
61095;Laerm;20450;49.074;9.158;2023-03-12T09:21:07;40.40;37.52;46.05;;
61095;Laerm;20450;49.074;9.158;2023-03-12T09:23:54;40.29;37.12;44.07;;
61095;Laerm;20450;49.074;9.158;2023-03-12T09:26:21;40.51;37.88;44.31;;
61095;Laerm;20450;49.074;9.158;2023-03-12T09:28:48;40.66;37.12;44.73;;
61095;Laerm;20450;49.074;9.158;2023-03-12T09:31:24;40.77;38.05;45.07;;
61095;Laerm;20450;49.074;9.158;2023-03-12T09:33:52;40.22;37.52;42.22;;
61095;Laerm;20450;49.074;9.158;2023-03-12T09:36:19;40.89;37.52;55.16;;
61095;Laerm;20450;49.074;9.158;2023-03-12T09:38:46;40.57;37.52;44.69;;
61095;Laerm;20450;49.074;9.158;2023-03-12T09:41:21;40.76;38.05;43.14;;
61095;Laerm;20450;49.074;9.158;2023-03-12T09:43:54;41.01;37.88;43.97;;
61095;Laerm;20450;49.074;9.158;2023-03-12T09:46:30;40.90;36.69;43.80;;
61095;Laerm;20450;49.074;9.158;2023-03-12T09:49:04;41.06;38.21;47.46;;
61095;Laerm;20450;49.074;9.158;2023-03-12T09:51:38;40.61;38.05;46.15;;
61095;Laerm;20450;49.074;9.158;2023-03-12T09:54:22;40.40;37.52;43.58;;
61095;Laerm;20450;49.074;9.158;2023-03-12T09:56:57;40.77;37.88;47.59;;
61095;Laerm;20450;49.074;9.158;2023-03-12T09:59:27;40.60;38.05;42.98;;
61095;Laerm;20450;49.074;9.158;2023-03-12T10:01:59;40.89;38.05;46.28;;
61095;Laerm;20450;49.074;9.158;2023-03-12T10:04:39;40.99;38.21;46.66;;
61095;Laerm;20450;49.074;9.158;2023-03-12T10:07:31;40.63;37.70;45.51;;
61095;Laerm;20450;49.074;9.158;2023-03-12T10:10:21;40.94;37.70;48.54;;
61095;Laerm;20450;49.074;9.158;2023-03-12T10:13:13;40.46;37.32;45.23;;
61095;Laerm;20450;49.074;9.158;2023-03-12T10:16:03;40.22;37.52;43.72;;
61095;Laerm;20450;49.074;9.158;2023-03-12T10:18:57;40.84;37.70;46.10;;
61095;Laerm;20450;49.074;9.158;2023-03-12T10:21:40;41.00;37.70;47.54;;
61095;Laerm;20450;49.074;9.158;2023-03-12T10:24:29;41.39;38.52;53.54;;
61095;Laerm;20450;49.074;9.158;2023-03-12T10:26:59;40.66;37.32;46.07;;
61095;Laerm;20450;49.074;9.158;2023-03-12T10:29:32;40.68;38.37;44.43;;
61095;Laerm;20450;49.074;9.158;2023-03-12T10:32:06;40.26;37.52;45.17;;
61095;Laerm;20450;49.074;9.158;2023-03-12T10:34:45;40.83;38.05;43.94;;
61095;Laerm;20450;49.074;9.158;2023-03-12T10:37:39;41.27;37.88;59.57;;
61095;Laerm;20450;49.074;9.158;2023-03-12T10:40:13;40.39;37.32;44.87;;
61095;Laerm;20450;49.074;9.158;2023-03-12T10:42:41;40.55;36.45;44.80;;
61095;Laerm;20450;49.074;9.158;2023-03-12T10:45:22;40.72;37.52;50.92;;
61095;Laerm;20450;49.074;9.158;2023-03-12T10:47:58;40.75;37.70;48.10;;
61095;Laerm;20450;49.074;9.158;2023-03-12T10:50:30;40.91;37.88;45.23;;
61095;Laerm;20450;49.074;9.158;2023-03-12T10:53:23;40.77;38.21;43.99;;
61095;Laerm;20450;49.074;9.158;2023-03-12T10:56:03;40.92;37.88;45.36;;
61095;Laerm;20450;49.074;9.158;2023-03-12T10:58:35;40.48;37.52;43.24;;
61095;Laerm;20450;49.074;9.158;2023-03-12T11:01:10;40.77;37.70;44.43;;
61095;Laerm;20450;49.074;9.158;2023-03-12T11:03:42;40.86;37.52;53.50;;
61095;Laerm;20450;49.074;9.158;2023-03-12T11:06:21;41.01;38.52;53.90;;
61095;Laerm;20450;49.074;9.158;2023-03-12T11:09:04;41.03;37.12;48.43;;
61095;Laerm;20450;49.074;9.158;2023-03-12T11:11:49;40.87;37.52;45.83;;
61095;Laerm;20450;49.074;9.158;2023-03-12T11:14:19;41.20;38.21;45.42;;
61095;Laerm;20450;49.074;9.158;2023-03-12T11:16:49;41.18;37.52;54.01;;
61095;Laerm;20450;49.074;9.158;2023-03-12T11:19:28;41.03;37.88;43.63;;
61095;Laerm;20450;49.074;9.158;2023-03-12T11:21:59;41.02;37.52;45.43;;
61095;Laerm;20450;49.074;9.158;2023-03-12T11:24:27;40.54;37.88;53.72;;
61095;Laerm;20450;49.074;9.158;2023-03-12T11:27:02;40.58;37.32;44.03;;
61095;Laerm;20450;49.074;9.158;2023-03-12T11:29:33;40.81;37.12;44.80;;
61095;Laerm;20450;49.074;9.158;2023-03-12T11:32:15;40.59;37.32;49.24;;
61095;Laerm;20450;49.074;9.158;2023-03-12T11:34:44;40.96;38.05;47.63;;
61095;Laerm;20450;49.074;9.158;2023-03-12T11:37:17;41.35;37.52;58.08;;
61095;Laerm;20450;49.074;9.158;2023-03-12T11:40:05;40.78;38.05;48.77;;
61095;Laerm;20450;49.074;9.158;2023-03-12T11:42:51;40.97;37.32;46.97;;
61095;Laerm;20450;49.074;9.158;2023-03-12T11:45:28;40.83;37.12;49.88;;
61095;Laerm;20450;49.074;9.158;2023-03-12T11:48:16;41.27;38.05;55.95;;
61095;Laerm;20450;49.074;9.158;2023-03-12T11:50:59;41.00;37.70;44.62;;
61095;Laerm;20450;49.074;9.158;2023-03-12T11:56:35;40.80;37.70;52.59;;
61095;Laerm;20450;49.074;9.158;2023-03-12T11:59:20;40.40;37.12;47.90;;
61095;Laerm;20450;49.074;9.158;2023-03-12T12:05:26;41.02;38.21;50.04;;
61095;Laerm;20450;49.074;9.158;2023-03-12T12:08:28;42.35;38.81;44.73;;
61095;Laerm;20450;49.074;9.158;2023-03-12T12:11:07;41.54;38.37;45.04;;
61095;Laerm;20450;49.074;9.158;2023-03-12T12:13:53;40.99;38.21;45.97;;
61095;Laerm;20450;49.074;9.158;2023-03-12T12:16:42;40.47;37.32;47.63;;
61095;Laerm;20450;49.074;9.158;2023-03-12T12:19:34;40.40;36.69;44.31;;
61095;Laerm;20450;49.074;9.158;2023-03-12T12:22:26;40.38;37.12;43.68;;
61095;Laerm;20450;49.074;9.158;2023-03-12T12:25:22;40.97;37.52;48.70;;
61095;Laerm;20450;49.074;9.158;2023-03-12T12:28:07;41.16;37.32;48.23;;
61095;Laerm;20450;49.074;9.158;2023-03-12T12:30:57;40.67;37.32;46.18;;
61095;Laerm;20450;49.074;9.158;2023-03-12T12:33:48;41.87;37.70;51.17;;
61095;Laerm;20450;49.074;9.158;2023-03-12T12:36:18;41.19;37.88;50.70;;
61095;Laerm;20450;49.074;9.158;2023-03-12T12:38:53;41.26;37.88;48.74;;
61095;Laerm;20450;49.074;9.158;2023-03-12T12:41:24;41.11;37.52;50.77;;
61095;Laerm;20450;49.074;9.158;2023-03-12T12:43:58;41.26;37.88;46.84;;
61095;Laerm;20450;49.074;9.158;2023-03-12T12:46:31;41.43;37.35;48.77;;
61095;Laerm;20450;49.074;9.158;2023-03-12T12:49:04;40.30;35.36;44.73;;
61095;Laerm;20450;49.074;9.158;2023-03-12T12:51:40;40.50;36.91;46.95;;
61095;Laerm;20450;49.074;9.158;2023-03-12T12:54:26;40.95;37.32;50.25;;
61095;Laerm;20450;49.074;9.158;2023-03-12T12:57:02;40.60;36.91;46.45;;
61095;Laerm;20450;49.074;9.158;2023-03-12T12:59:39;40.26;36.91;45.91;;
61095;Laerm;20450;49.074;9.158;2023-03-12T13:02:16;40.86;37.52;48.26;;
61095;Laerm;20450;49.074;9.158;2023-03-12T13:04:46;40.19;37.12;53.78;;
61095;Laerm;20450;49.074;9.158;2023-03-12T13:07:32;40.62;36.91;51.40;;
61095;Laerm;20450;49.074;9.158;2023-03-12T13:10:06;40.47;37.12;44.38;;
61095;Laerm;20450;49.074;9.158;2023-03-12T13:12:55;40.38;37.32;60.44;;
61095;Laerm;20450;49.074;9.158;2023-03-12T13:15:37;40.06;36.69;42.53;;
61095;Laerm;20450;49.074;9.158;2023-03-12T13:18:19;39.85;35.94;42.88;;
61095;Laerm;20450;49.074;9.158;2023-03-12T13:21:14;40.05;36.69;45.42;;
61095;Laerm;20450;49.074;9.158;2023-03-12T13:23:54;40.15;36.20;44.15;;
61095;Laerm;20450;49.074;9.158;2023-03-12T13:26:51;41.73;37.12;60.10;;
61095;Laerm;20450;49.074;9.158;2023-03-12T13:29:36;40.28;36.45;47.86;;
61095;Laerm;20450;49.074;9.158;2023-03-12T13:32:04;40.29;36.45;46.59;;
61095;Laerm;20450;49.074;9.158;2023-03-12T13:34:49;40.54;36.69;44.15;;
61095;Laerm;20450;49.074;9.158;2023-03-12T13:37:58;41.02;36.20;58.17;;
61095;Laerm;20450;49.074;9.158;2023-03-12T13:40:56;40.18;36.20;50.06;;
61095;Laerm;20450;49.074;9.158;2023-03-12T13:46:36;41.57;37.12;50.89;;
61095;Laerm;20450;49.074;9.158;2023-03-12T13:49:13;41.56;37.52;48.95;;
61095;Laerm;20450;49.074;9.158;2023-03-12T13:51:58;40.96;38.37;46.80;;
61095;Laerm;20450;49.074;9.158;2023-03-12T13:54:31;41.18;39.08;45.36;;
61095;Laerm;20450;49.074;9.158;2023-03-12T13:57:04;40.87;38.05;52.43;;
61095;Laerm;20450;49.074;9.158;2023-03-12T13:59:43;40.99;37.52;53.82;;
61095;Laerm;20450;49.074;9.158;2023-03-12T14:02:22;40.53;37.32;45.54;;
61095;Laerm;20450;49.074;9.158;2023-03-12T14:04:50;40.48;37.12;45.57;;
61095;Laerm;20450;49.074;9.158;2023-03-12T14:07:54;40.55;37.52;43.99;;
61095;Laerm;20450;49.074;9.158;2023-03-12T14:10:39;40.10;36.20;46.38;;
61095;Laerm;20450;49.074;9.158;2023-03-12T14:13:28;40.47;37.12;50.12;;
61095;Laerm;20450;49.074;9.158;2023-03-12T14:16:09;40.41;37.12;51.35;;
61095;Laerm;20450;49.074;9.158;2023-03-12T14:18:44;40.51;37.12;47.40;;
61095;Laerm;20450;49.074;9.158;2023-03-12T14:21:15;40.58;37.32;48.94;;